Time;durP1;ratioP1;P1;durP2;ratioP2;P2;SDS_P1;SDS_P2;PMS_P1;PMS_P2;Temp;Humidity;BMP_temperature;BMP_pressure;BME280_temperature;BME280_humidity;BME280_pressure;Samples;Min_cycle;Max_cycle;Signal;HPM_P1;HPM_P2
2021/05/13 00:00:47;;;;;;;2.75;1.05;;;;;;;13.57;56.79;100012.63;1725649;81;21099;-63
2021/05/13 00:03:13;;;;;;;3.75;1.37;;;;;;;13.53;57.09;100010.78;1735656;80;21474;-63
2021/05/13 00:05:40;;;;;;;3.50;1.35;;;;;;;13.50;57.06;100020.80;1749408;80;21085;-63
2021/05/13 00:08:07;;;;;;;3.67;0.95;;;;;;;13.44;57.13;100014.31;1740336;80;21088;-61
2021/05/13 00:10:33;;;;;;;3.65;1.00;;;;;;;13.43;57.36;100013.14;1743797;81;21169;-62
2021/05/13 00:13:02;;;;;;;3.20;1.20;;;;;;;13.41;57.34;100008.00;1744479;81;21129;-65
2021/05/13 00:15:33;;;;;;;3.52;1.22;;;;;;;13.39;57.41;100006.02;1744308;81;21062;-68
2021/05/13 00:17:59;;;;;;;3.08;1.22;;;;;;;13.37;57.54;100009.30;1742280;81;21575;-65
2021/05/13 00:20:29;;;;;;;3.33;1.22;;;;;;;13.35;57.63;100008.62;1742640;80;21118;-62
2021/05/13 00:22:56;;;;;;;3.58;1.35;;;;;;;13.34;57.61;100012.23;1748583;81;21089;-66
2021/05/13 00:25:23;;;;;;;2.75;1.00;;;;;;;13.30;57.74;100007.72;1723520;81;21647;-66
2021/05/13 00:27:50;;;;;;;3.47;1.20;;;;;;;13.35;57.76;100005.48;1750791;81;21595;-64
2021/05/13 00:30:18;;;;;;;6.60;1.52;;;;;;;13.48;57.74;99995.02;1731824;81;21038;-62
2021/05/13 00:32:45;;;;;;;4.40;1.42;;;;;;;13.56;57.59;99993.27;1728735;80;21105;-64
2021/05/13 00:35:15;;;;;;;4.40;1.82;;;;;;;13.64;57.49;99991.70;1746220;80;21120;-65
2021/05/13 00:37:41;;;;;;;3.33;1.55;;;;;;;13.61;57.38;99990.19;1755260;80;21579;-62
2021/05/13 00:40:10;;;;;;;3.58;1.27;;;;;;;13.56;57.50;99988.48;1737344;80;21069;-68
2021/05/13 00:42:36;;;;;;;3.77;1.40;;;;;;;13.53;57.48;99987.00;1752599;80;22405;-64
2021/05/13 00:45:05;;;;;;;7.92;1.80;;;;;;;13.51;57.51;99984.97;1744457;80;21058;-64
2021/05/13 00:47:34;;;;;;;5.78;2.05;;;;;;;13.48;57.60;99986.63;1726523;80;21085;-61
2021/05/13 00:49:59;;;;;;;3.62;1.72;;;;;;;13.46;57.59;99993.84;1751808;80;21512;-62
2021/05/13 00:52:26;;;;;;;4.20;1.65;;;;;;;13.41;57.71;99984.22;1756419;80;21096;-63
2021/05/13 00:54:53;;;;;;;6.83;1.45;;;;;;;13.36;57.87;99977.23;1754509;80;21142;-62
2021/05/13 00:57:19;;;;;;;3.35;1.25;;;;;;;13.34;58.04;99976.56;1755814;80;21084;-67
2021/05/13 00:59:49;;;;;;;4.65;2.05;;;;;;;13.28;58.12;99975.34;1731702;80;21041;-63
2021/05/13 01:02:14;;;;;;;3.87;1.60;;;;;;;13.19;58.24;99969.61;1762425;80;21549;-62
2021/05/13 01:04:40;;;;;;;4.42;1.60;;;;;;;13.14;58.43;99971.88;1758741;80;21092;-63
2021/05/13 01:07:07;;;;;;;4.55;1.70;;;;;;;13.07;58.57;99970.32;1763895;80;21682;-64
2021/05/13 01:09:33;;;;;;;4.45;1.52;;;;;;;13.02;58.78;99967.30;1755994;80;21108;-64
2021/05/13 01:12:03;;;;;;;3.83;1.92;;;;;;;12.95;58.89;99965.73;1755718;80;21073;-63
2021/05/13 01:19:41;;;;;;;5.13;1.90;;;;;;;12.79;59.45;99958.95;1667934;83;21101;-62
2021/05/13 01:22:07;;;;;;;4.75;1.65;;;;;;;12.81;59.49;99963.12;1702626;82;21236;-64
2021/05/13 01:24:33;;;;;;;5.12;2.08;;;;;;;12.89;59.46;99963.68;1718476;82;21057;-63
2021/05/13 01:27:00;;;;;;;4.00;1.80;;;;;;;12.97;59.39;99961.63;1717141;82;21572;-64
2021/05/13 01:29:27;;;;;;;4.45;2.10;;;;;;;12.99;59.49;99967.59;1678384;83;21089;-65
2021/05/13 01:31:54;;;;;;;5.50;2.02;;;;;;;12.96;59.75;99966.09;1723256;82;22435;-65
2021/05/13 01:34:21;;;;;;;5.03;1.82;;;;;;;12.96;59.80;99969.20;1697983;83;21062;-62
2021/05/13 01:36:48;;;;;;;5.60;2.15;;;;;;;12.98;59.84;99973.38;1673191;84;21576;-63
2021/05/13 01:39:15;;;;;;;5.15;2.20;;;;;;;12.98;59.87;99973.38;1746194;81;21159;-64
2021/05/13 01:41:42;;;;;;;6.85;2.35;;;;;;;12.98;59.95;99967.27;1749646;81;21041;-63
2021/05/13 01:44:09;;;;;;;6.35;2.47;;;;;;;12.98;60.00;99972.55;1747811;81;21647;-65
2021/05/13 01:46:36;;;;;;;6.83;2.37;;;;;;;12.98;60.04;99973.88;1752022;80;21089;-63
2021/05/13 01:49:05;;;;;;;10.13;2.75;;;;;;;12.97;59.96;99973.02;1729082;81;21034;-64
2021/05/13 01:51:32;;;;;;;5.45;2.47;;;;;;;12.97;59.94;99965.09;1747428;81;21621;-63
2021/05/13 01:53:58;;;;;;;8.25;2.72;;;;;;;12.97;59.96;99965.09;1748316;81;21112;-63
2021/05/13 01:56:25;;;;;;;5.78;2.50;;;;;;;12.97;59.94;99965.09;1728984;81;21785;-66
2021/05/13 01:58:51;;;;;;;5.95;2.77;;;;;;;12.97;59.96;99969.05;1757843;81;21073;-64
2021/05/13 02:01:17;;;;;;;6.72;2.22;;;;;;;12.97;59.96;99972.20;1697719;82;21101;-63
2021/05/13 02:03:45;;;;;;;5.22;2.30;;;;;;;12.96;60.13;99967.88;1683739;83;21138;-63
2021/05/13 02:06:11;;;;;;;5.05;2.10;;;;;;;12.98;60.35;99968.59;1746599;81;21093;-66
2021/05/13 02:08:38;;;;;;;9.63;2.65;;;;;;;13.08;60.23;99968.03;1750633;81;21090;-63
2021/05/13 02:11:05;;;;;;;7.25;2.80;;;;;;;13.17;60.07;99968.94;1735191;80;21092;-62
2021/05/13 02:13:31;;;;;;;4.80;2.30;;;;;;;13.19;59.89;99957.22;1745464;81;21679;-66
2021/05/13 02:15:59;;;;;;;6.45;2.83;;;;;;;13.16;59.97;99963.30;1754600;81;21093;-65
2021/05/13 02:18:26;;;;;;;5.85;2.90;;;;;;;13.15;60.10;99961.16;1746190;81;21576;-64
2021/05/13 02:20:52;;;;;;;6.87;2.80;;;;;;;13.13;60.15;99959.17;1745868;81;21129;-63
2021/05/13 02:23:18;;;;;;;6.17;2.65;;;;;;;13.11;60.23;99958.50;1746156;81;21599;-66
2021/05/13 02:25:47;;;;;;;4.90;2.60;;;;;;;13.09;60.15;99960.43;1746726;81;21058;-63
2021/05/13 02:28:14;;;;;;;5.97;2.75;;;;;;;13.07;60.27;99956.30;1751195;81;21065;-62
2021/05/13 02:30:40;;;;;;;5.03;2.37;;;;;;;13.03;60.40;99957.55;1674693;82;21082;-64
2021/05/13 02:33:06;;;;;;;5.22;2.40;;;;;;;13.00;60.50;99951.59;1749419;80;21046;-63
2021/05/13 02:35:33;;;;;;;7.90;2.55;;;;;;;12.96;60.62;99953.36;1750545;80;21040;-71
2021/05/13 02:37:59;;;;;;;5.55;2.67;;;;;;;12.94;60.74;99955.32;1755406;80;21089;-63
2021/05/13 02:40:26;;;;;;;5.65;2.62;;;;;;;12.89;60.94;99956.26;1725532;80;21440;-66
2021/05/13 02:42:52;;;;;;;5.03;2.35;;;;;;;12.82;61.09;99955.52;1758892;80;21128;-64
2021/05/13 02:48:24;;;;;;;5.45;2.55;;;;;;;12.94;61.09;99956.64;1794601;77;22306;-63
2021/05/13 02:50:50;;;;;;;6.60;2.67;;;;;;;12.91;61.04;99954.30;1787048;78;21076;-66
2021/05/13 02:53:16;;;;;;;7.37;2.50;;;;;;;12.88;61.15;99955.91;1786442;79;22535;-67
2021/05/13 02:55:42;;;;;;;5.37;2.20;;;;;;;12.86;61.26;99959.19;1784502;79;21001;-65
2021/05/13 02:58:09;;;;;;;5.25;2.92;;;;;;;12.82;61.28;99959.98;1781959;79;21241;-69
2021/05/13 03:00:48;;;;;;;6.53;2.95;;;;;;;12.81;61.34;99966.25;1752428;80;20997;-66
2021/05/13 03:03:04;;;;;;;5.05;2.35;;;;;;;12.83;61.33;99966.94;1780588;78;21080;-64
2021/05/13 03:05:30;;;;;;;4.72;2.37;;;;;;;12.82;61.48;99966.58;1780499;79;21175;-67
2021/05/13 03:08:01;;;;;;;4.40;2.20;;;;;;;12.81;61.61;99968.40;1788783;79;21005;-63
2021/05/13 03:10:43;;;;;;;5.60;2.70;;;;;;;12.84;61.65;99967.25;1784604;79;21119;-69
2021/05/13 03:12:55;;;;;;;6.67;2.90;;;;;;;12.83;61.79;99962.47;1776573;79;21132;-66
2021/05/13 03:15:21;;;;;;;4.95;2.37;;;;;;;12.85;61.88;99963.65;1785487;79;21068;-66
2021/05/13 03:17:50;;;;;;;6.95;2.42;;;;;;;12.91;61.82;99966.17;1783266;79;21018;-65
2021/05/13 03:20:20;;;;;;;5.20;2.55;;;;;;;13.03;61.66;99966.80;1807055;79;21072;-65
2021/05/13 03:22:49;;;;;;;5.33;2.47;;;;;;;13.13;61.66;99975.48;1788103;79;21052;-65
2021/05/13 03:25:15;;;;;;;5.12;2.62;;;;;;;13.23;61.67;99978.06;1755182;80;20965;-65
2021/05/13 03:27:48;;;;;;;5.10;2.47;;;;;;;13.26;61.60;99979.91;1766164;79;21060;-66
2021/05/13 03:30:14;;;;;;;5.22;2.55;;;;;;;13.31;61.62;99976.83;1782990;79;21123;-68
2021/05/13 03:32:40;;;;;;;6.92;2.52;;;;;;;13.35;61.73;99974.27;1786988;79;21057;-64
2021/05/13 03:35:08;;;;;;;6.35;3.00;;;;;;;13.37;61.66;99982.38;1783716;79;21053;-68
2021/05/13 03:37:34;;;;;;;5.47;3.05;;;;;;;13.38;61.48;99980.55;1782837;79;21163;-63
2021/05/13 03:40:01;;;;;;;4.80;2.40;;;;;;;13.40;61.43;99975.97;1760065;79;22270;-65
2021/05/13 03:42:28;;;;;;;5.70;2.77;;;;;;;13.45;61.33;99976.34;1781763;79;21080;-64
2021/05/13 03:44:54;;;;;;;5.05;2.87;;;;;;;13.49;61.44;99977.69;1750608;80;21564;-65
2021/05/13 03:47:20;;;;;;;5.00;2.30;;;;;;;13.50;61.33;99982.01;1780746;79;21057;-70
2021/05/13 03:49:47;;;;;;;5.60;2.27;;;;;;;13.52;61.20;99979.22;1778827;79;21073;-66
2021/05/13 03:52:14;;;;;;;5.08;2.55;;;;;;;13.61;61.09;99975.64;1780320;79;20914;-71
2021/05/13 03:54:40;;;;;;;6.45;2.62;;;;;;;13.75;61.02;99981.72;1779358;79;21043;-70
2021/05/13 03:57:07;;;;;;;6.80;3.20;;;;;;;13.87;60.94;99980.13;1784308;79;21080;-65
2021/05/13 03:59:38;;;;;;;8.48;2.98;;;;;;;13.95;60.54;99981.52;1783114;79;21117;-65
2021/05/13 04:02:08;;;;;;;5.83;2.33;;;;;;;13.98;60.18;99984.36;1751931;79;21061;-67
2021/05/13 04:04:31;;;;;;;7.10;2.70;;;;;;;13.94;60.36;99978.05;1752781;80;21069;-64
2021/05/13 04:06:58;;;;;;;5.12;2.50;;;;;;;13.93;60.50;99974.23;1788949;79;21085;-66
2021/05/13 04:09:25;;;;;;;4.83;2.33;;;;;;;13.92;60.58;99973.92;1782374;79;21068;-67
2021/05/13 04:11:52;;;;;;;4.60;2.25;;;;;;;13.92;60.43;99970.77;1781789;79;21018;-64
2021/05/13 04:14:20;;;;;;;6.53;2.50;;;;;;;13.94;60.31;99974.59;1755195;79;21682;-64
2021/05/13 04:16:54;;;;;;;5.67;2.20;;;;;;;13.94;59.98;99966.15;1785626;79;21732;-66
2021/05/13 04:19:21;;;;;;;7.15;2.75;;;;;;;13.97;59.63;99975.61;1778957;79;21073;-64
2021/05/13 04:21:48;;;;;;;5.08;2.20;;;;;;;14.00;59.41;99977.91;1785705;79;21116;-64
2021/05/13 04:24:18;;;;;;;5.15;2.00;;;;;;;14.02;58.96;99985.23;1777144;79;21072;-64
2021/05/13 04:26:43;;;;;;;5.65;2.62;;;;;;;14.04;59.00;99986.40;1748587;80;21112;-63
2021/05/13 04:29:09;;;;;;;6.10;2.17;;;;;;;14.06;58.86;99985.23;1781700;79;21551;-67
2021/05/13 04:31:36;;;;;;;5.28;2.20;;;;;;;14.09;58.15;99980.97;1776139;79;21088;-67
2021/05/13 04:34:05;;;;;;;5.30;2.30;;;;;;;14.12;58.19;99979.34;1776336;79;21124;-65
2021/05/13 04:36:32;;;;;;;5.40;2.42;;;;;;;14.19;57.34;99982.19;1751619;79;21081;-66
2021/05/13 04:38:58;;;;;;;4.87;2.33;;;;;;;14.24;57.00;99981.23;1782069;79;20990;-65
2021/05/13 04:41:28;;;;;;;6.22;2.25;;;;;;;14.31;56.55;99982.25;1777136;79;21052;-65
2021/05/13 04:43:53;;;;;;;5.72;2.50;;;;;;;14.37;55.16;99980.78;1788315;79;21063;-63
2021/05/13 04:46:22;;;;;;;5.10;2.75;;;;;;;14.44;53.44;99986.28;1752417;79;21092;-65
2021/05/13 04:51:19;;;;;;;7.60;2.45;;;;;;;14.45;52.46;99986.63;1742087;79;21073;-67
2021/05/13 04:53:49;;;;;;;5.20;2.20;;;;;;;14.45;52.60;99976.04;1764826;79;21143;-65
2021/05/13 04:56:18;;;;;;;5.22;2.47;;;;;;;14.44;52.75;99972.58;1772146;79;21124;-65
2021/05/13 04:58:44;;;;;;;5.83;2.20;;;;;;;14.46;52.50;99973.73;1765438;79;21010;-66
2021/05/13 05:01:11;;;;;;;4.53;1.95;;;;;;;14.49;51.97;99976.05;1744075;79;21560;-64
2021/05/13 05:03:37;;;;;;;5.62;2.22;;;;;;;14.50;51.85;99973.75;1765474;79;21119;-66
2021/05/13 05:06:04;;;;;;;5.08;2.33;;;;;;;14.53;51.87;99972.11;1743938;80;21093;-67
2021/05/13 05:08:31;;;;;;;5.55;2.25;;;;;;;14.55;51.97;99970.63;1766543;79;21105;-64
2021/05/13 05:10:57;;;;;;;5.95;2.40;;;;;;;14.56;51.71;99977.56;1772103;79;21065;-66
2021/05/13 05:13:24;;;;;;;6.05;2.67;;;;;;;14.55;51.53;99971.45;1768455;79;21061;-64
2021/05/13 05:15:50;;;;;;;4.55;2.20;;;;;;;14.53;51.43;99974.76;1747651;79;21066;-64
2021/05/13 05:18:19;;;;;;;5.60;1.98;;;;;;;14.48;51.03;99973.08;1766708;79;21086;-66
2021/05/13 05:20:45;;;;;;;4.42;2.20;;;;;;;14.44;51.34;99977.02;1767706;79;21134;-67
2021/05/13 05:23:13;;;;;;;8.10;2.72;;;;;;;14.43;51.42;99974.05;1768763;79;21077;-65
2021/05/13 05:25:39;;;;;;;6.92;2.33;;;;;;;14.46;51.72;99968.45;1767831;79;21044;-67
2021/05/13 05:28:06;;;;;;;4.87;2.33;;;;;;;14.52;52.20;99974.41;1772409;79;21089;-67
2021/05/13 05:30:33;;;;;;;4.30;2.08;;;;;;;14.60;52.45;99978.95;1773727;79;22267;-68
2021/05/13 05:33:02;;;;;;;5.30;2.27;;;;;;;14.65;51.91;99976.16;1771708;79;21075;-67
2021/05/13 05:35:28;;;;;;;5.12;2.20;;;;;;;14.69;51.45;99975.34;1770951;79;21116;-67
2021/05/13 05:37:55;;;;;;;4.80;2.25;;;;;;;14.70;50.99;99972.22;1768623;79;21113;-65
2021/05/13 05:40:21;;;;;;;5.42;2.05;;;;;;;14.69;51.32;99970.04;1744849;81;21034;-67
2021/05/13 05:42:48;;;;;;;6.67;2.58;;;;;;;14.75;51.69;99973.89;1767564;79;21141;-66
2021/05/13 05:45:16;;;;;;;6.87;2.62;;;;;;;14.80;51.82;99970.27;1752268;79;21367;-66
2021/05/13 05:47:42;;;;;;;6.62;2.60;;;;;;;14.87;51.43;99977.89;1768835;79;21757;-67
2021/05/13 05:50:11;;;;;;;4.92;2.15;;;;;;;14.94;51.48;99970.95;1768202;79;22685;-65
2021/05/13 05:52:37;;;;;;;6.55;2.75;;;;;;;14.97;51.00;99978.58;1765818;79;21129;-68
2021/05/13 05:55:07;;;;;;;5.22;2.42;;;;;;;15.01;50.80;99975.97;1764952;79;21050;-66
2021/05/13 05:57:33;;;;;;;5.58;1.95;;;;;;;15.01;50.53;99973.31;1765171;79;21161;-66
2021/05/13 06:00:01;;;;;;;5.05;2.12;;;;;;;15.01;50.34;99979.09;1744898;79;22283;-71
2021/05/13 06:02:28;;;;;;;4.90;2.25;;;;;;;15.05;50.63;99977.79;1766365;79;21513;-65
2021/05/13 06:04:54;;;;;;;5.55;2.25;;;;;;;15.09;50.10;99978.30;1767643;79;20906;-66
2021/05/13 06:07:22;;;;;;;5.22;1.90;;;;;;;15.11;49.85;99978.45;1766779;79;21359;-68
2021/05/13 06:09:48;;;;;;;4.40;1.90;;;;;;;15.14;50.07;99972.01;1767464;79;21110;-71
2021/05/13 06:12:15;;;;;;;5.95;1.72;;;;;;;15.19;49.45;99971.84;1744899;79;21581;-67
2021/05/13 06:14:42;;;;;;;4.30;1.98;;;;;;;15.25;49.63;99974.36;1768034;79;21093;-65
2021/05/13 06:17:10;;;;;;;4.50;1.67;;;;;;;15.34;49.50;99973.87;1747875;79;21093;-66
2021/05/13 06:19:36;;;;;;;5.08;1.95;;;;;;;15.44;48.82;99971.06;1744602;79;21614;-68
2021/05/13 06:22:03;;;;;;;4.95;1.90;;;;;;;15.49;48.01;99978.03;1747559;79;21117;-65
2021/05/13 06:24:30;;;;;;;4.53;1.60;;;;;;;15.49;48.37;99980.17;1766308;79;21082;-65
2021/05/13 06:27:01;;;;;;;4.42;1.40;;;;;;;15.52;48.77;99977.70;1747471;79;21594;-66
2021/05/13 06:29:31;;;;;;;4.35;1.40;;;;;;;15.56;48.65;99976.37;1766559;79;21530;-65
2021/05/13 06:31:57;;;;;;;4.08;1.47;;;;;;;15.60;47.89;99979.00;1765537;79;21057;-67
2021/05/13 06:34:24;;;;;;;6.42;1.42;;;;;;;15.60;47.87;99972.38;1748139;79;21113;-66
2021/05/13 06:36:53;;;;;;;3.20;1.20;;;;;;;15.65;48.11;99982.02;1764133;79;21118;-68
2021/05/13 06:39:20;;;;;;;2.90;1.07;;;;;;;15.71;47.88;99979.19;1767309;79;21078;-70
2021/05/13 06:41:46;;;;;;;3.10;1.40;;;;;;;15.78;46.64;99978.87;1749542;79;21571;-68
2021/05/13 06:44:12;;;;;;;8.75;1.57;;;;;;;15.83;47.74;99983.19;1764694;79;21053;-67
2021/05/13 06:46:39;;;;;;;3.80;1.30;;;;;;;15.91;46.88;99984.52;1765654;79;21149;-67
2021/05/13 06:49:06;;;;;;;3.42;1.35;;;;;;;15.95;45.94;99974.39;1745552;79;22485;-69
2021/05/13 06:51:32;;;;;;;4.87;1.57;;;;;;;15.95;46.45;99969.93;1750050;79;21069;-67
2021/05/13 06:53:58;;;;;;;3.65;1.60;;;;;;;16.02;46.29;99971.41;1777088;78;21748;-67
2021/05/13 06:56:25;;;;;;;2.58;1.20;;;;;;;16.08;46.44;99969.39;1748765;79;21040;-67
2021/05/13 06:58:52;;;;;;;3.95;1.50;;;;;;;16.16;46.55;99966.72;1749575;79;21057;-67
2021/05/13 07:01:18;;;;;;;3.08;1.02;;;;;;;16.28;46.03;99974.34;1748711;80;21091;-66
2021/05/13 07:03:45;;;;;;;5.30;1.25;;;;;;;16.37;45.83;99969.83;1756283;79;21060;-66
2021/05/13 07:06:11;;;;;;;4.03;1.32;;;;;;;16.44;46.71;99961.02;1779113;78;21117;-69
2021/05/13 07:08:37;;;;;;;4.28;1.35;;;;;;;16.58;46.64;99957.31;1754093;79;21423;-68
2021/05/13 07:11:04;;;;;;;3.75;1.42;;;;;;;16.73;47.31;99958.24;1744656;80;21119;-67
2021/05/13 07:13:31;;;;;;;4.00;1.52;;;;;;;16.88;46.79;99947.23;1774570;78;21246;-68
2021/05/13 07:15:59;;;;;;;3.70;1.50;;;;;;;16.99;46.31;99951.81;1781626;79;21073;-66
2021/05/13 07:18:25;;;;;;;3.37;1.35;;;;;;;17.07;46.75;99955.77;1777852;79;21065;-65
2021/05/13 07:20:52;;;;;;;7.22;1.57;;;;;;;17.14;46.08;99957.22;1779713;78;21109;-67
2021/05/13 07:23:18;;;;;;;5.00;1.45;;;;;;;17.19;45.20;99949.02;1782053;79;22436;-70
2021/05/13 07:25:46;;;;;;;5.35;1.57;;;;;;;17.20;45.14;99948.03;1745810;79;21085;-69
2021/05/13 07:28:14;;;;;;;4.83;1.50;;;;;;;17.23;44.81;99950.34;1747718;80;21402;-67
2021/05/13 07:30:42;;;;;;;3.62;1.37;;;;;;;17.26;45.36;99944.68;1779833;79;21140;-68
2021/05/13 07:33:09;;;;;;;3.87;1.67;;;;;;;17.31;45.38;99947.30;1776229;78;21065;-67
2021/05/13 07:35:35;;;;;;;4.15;1.55;;;;;;;17.33;44.76;99947.94;1753917;79;21178;-67
2021/05/13 07:38:02;;;;;;;5.12;1.30;;;;;;;17.36;44.45;99944.42;1747571;79;21092;-69
2021/05/13 07:40:29;;;;;;;4.42;1.72;;;;;;;17.40;44.40;99948.88;1754658;79;21065;-66
2021/05/13 07:42:56;;;;;;;5.58;1.75;;;;;;;17.44;45.13;99948.86;1779458;79;21089;-68
2021/05/13 07:45:24;;;;;;;2.83;1.00;;;;;;;17.50;43.87;99953.48;1778004;79;21090;-66
2021/05/13 07:47:51;;;;;;;2.87;0.78;;;;;;;17.53;42.05;99949.61;1778603;78;21124;-67
2021/05/13 07:50:20;;;;;;;3.05;1.10;;;;;;;17.50;41.50;99945.50;1766970;79;21519;-66
2021/05/13 07:52:47;;;;;;;4.22;1.30;;;;;;;17.47;42.09;99947.17;1688384;81;21126;-68
2021/05/13 07:55:14;;;;;;;3.08;1.05;;;;;;;17.48;42.20;99947.48;1744503;79;21627;-67
2021/05/13 07:57:40;;;;;;;3.65;0.80;;;;;;;17.52;40.69;99940.81;1769279;79;21156;-68
2021/05/13 08:00:08;;;;;;;4.47;1.50;;;;;;;17.48;40.77;99948.00;1764206;79;21156;-66
2021/05/13 08:02:41;;;;;;;2.30;0.82;;;;;;;17.50;41.86;99946.83;1764142;79;21571;-66
2021/05/13 08:05:09;;;;;;;3.45;1.10;;;;;;;17.57;40.99;99946.94;1771322;79;21105;-67
2021/05/13 08:07:35;;;;;;;3.47;1.07;;;;;;;17.58;40.64;99955.23;1765496;79;22377;-67
2021/05/13 08:10:03;;;;;;;9.03;1.00;;;;;;;17.57;40.72;99950.92;1744349;79;21575;-65
2021/05/13 08:12:30;;;;;;;3.37;1.17;;;;;;;17.54;41.03;99953.42;1766175;79;21653;-67
2021/05/13 08:14:56;;;;;;;5.33;1.40;;;;;;;17.57;41.17;99949.09;1765567;79;21112;-68
2021/05/13 08:17:23;;;;;;;3.08;0.88;;;;;;;17.62;41.11;99959.20;1767129;79;21577;-66
2021/05/13 08:19:51;;;;;;;2.77;0.90;;;;;;;17.65;40.75;99956.16;1770420;79;21070;-66
2021/05/13 08:22:18;;;;;;;4.75;1.12;;;;;;;17.68;41.41;99950.48;1768009;79;21070;-66
2021/05/13 08:24:45;;;;;;;2.95;1.10;;;;;;;17.75;41.76;99951.44;1765746;79;21001;-65
2021/05/13 08:27:11;;;;;;;3.42;1.20;;;;;;;17.86;42.39;99946.68;1745459;79;21133;-67
2021/05/13 08:29:37;;;;;;;1.90;0.62;;;;;;;17.96;41.37;99936.62;1767247;79;21065;-65
2021/05/13 08:32:26;;;;;;;6.17;1.07;;;;;;;18.08;41.30;99942.33;1766172;79;21026;-67
2021/05/13 08:34:56;;;;;;;3.52;1.12;;;;;;;18.23;40.96;99942.34;1682424;83;21818;-61
2021/05/13 08:37:22;;;;;;;3.65;1.42;;;;;;;18.36;40.40;99943.34;1685704;83;21087;-62
2021/05/13 08:39:49;;;;;;;3.00;1.05;;;;;;;18.44;39.71;99947.75;1685497;83;21660;-61
2021/05/13 08:42:15;;;;;;;4.40;1.27;;;;;;;18.46;38.69;99949.72;1680932;83;21125;-61
2021/05/13 08:44:43;;;;;;;3.58;1.37;;;;;;;18.38;38.48;99942.64;1679398;83;21113;-60
2021/05/13 08:47:10;;;;;;;3.70;1.20;;;;;;;18.36;39.30;99940.67;1684664;83;22591;-60
2021/05/13 08:49:40;;;;;;;5.55;1.60;;;;;;;18.44;39.80;99944.24;1660046;84;21131;-59
2021/05/13 08:52:10;;;;;;;3.83;1.57;;;;;;;18.48;39.35;99942.88;1683373;83;21159;-64
2021/05/13 08:54:55;;;;;;;3.85;1.70;;;;;;;18.49;39.31;99939.19;1685273;83;21086;-65
2021/05/13 08:57:22;;;;;;;4.42;2.05;;;;;;;18.52;39.33;99943.63;1686779;83;21130;-67
2021/05/13 08:59:49;;;;;;;4.55;2.17;;;;;;;18.59;38.92;99942.38;1689912;83;21079;-66
2021/05/13 09:02:17;;;;;;;4.78;1.60;;;;;;;18.63;39.93;99945.53;1685112;83;21116;-64
2021/05/13 09:04:48;;;;;;;3.77;1.62;;;;;;;18.67;39.48;99943.62;1685661;83;21615;-70
2021/05/13 09:07:25;;;;;;;3.95;1.57;;;;;;;18.74;39.64;99942.36;1687256;83;21067;-64
2021/05/13 09:10:06;;;;;;;4.60;1.90;;;;;;;18.82;39.81;99942.26;1684916;83;21892;-63
2021/05/13 09:12:48;;;;;;;3.20;1.20;;;;;;;18.90;39.74;99941.36;1681603;83;21094;-63
2021/05/13 09:15:23;;;;;;;3.62;1.37;;;;;;;18.97;40.04;99938.77;1648620;85;21021;-62
2021/05/13 09:17:51;;;;;;;3.67;1.60;;;;;;;19.04;38.97;99929.81;1681614;83;21217;-65
2021/05/13 09:20:38;;;;;;;3.65;1.50;;;;;;;19.12;39.34;99937.69;1658805;84;21110;-64
2021/05/13 09:23:14;;;;;;;3.45;1.32;;;;;;;19.19;37.80;99931.61;1681067;83;21161;-62
2021/05/13 09:25:46;;;;;;;3.60;1.37;;;;;;;19.12;37.21;99941.70;1682613;83;21171;-64
2021/05/13 09:28:12;;;;;;;4.22;1.45;;;;;;;19.09;37.86;99931.41;1682783;83;21145;-62
2021/05/13 09:30:38;;;;;;;3.12;1.37;;;;;;;19.11;37.61;99937.88;1682786;83;21180;-63
2021/05/13 09:33:08;;;;;;;3.77;1.45;;;;;;;19.12;37.71;99931.03;1685336;83;21132;-65
2021/05/13 09:35:35;;;;;;;5.03;1.50;;;;;;;19.15;38.36;99935.17;1681407;83;21116;-66
2021/05/13 09:38:08;;;;;;;4.15;1.70;;;;;;;19.21;38.14;99941.58;1644988;85;21145;-68
2021/05/13 09:40:39;;;;;;;3.10;1.25;;;;;;;19.25;38.08;99937.02;1620301;86;21109;-65
2021/05/13 09:43:25;;;;;;;5.65;1.52;;;;;;;19.26;37.21;99933.83;1641873;85;21738;-69
2021/05/13 09:45:57;;;;;;;3.87;1.62;;;;;;;19.24;37.71;99935.34;1665165;83;21576;-66
2021/05/13 09:48:39;;;;;;;3.67;1.62;;;;;;;19.28;38.05;99933.97;1683620;83;21159;-65
2021/05/13 09:51:27;;;;;;;3.98;1.47;;;;;;;19.42;37.92;99940.24;1678218;83;21031;-66
2021/05/13 09:54:15;;;;;;;3.55;1.32;;;;;;;19.52;37.42;99930.58;1663545;83;21171;-61
2021/05/13 09:56:50;;;;;;;4.45;2.33;;;;;;;19.60;37.12;99929.61;1689411;83;21383;-65
2021/05/13 09:59:38;;;;;;;5.40;2.00;;;;;;;19.62;38.48;99928.92;1690880;83;21167;-63
2021/05/13 10:02:07;;;;;;;4.08;1.70;;;;;;;19.70;38.37;99933.28;1671207;83;21104;-61
2021/05/13 10:04:33;;;;;;;3.75;1.27;;;;;;;19.76;37.35;99932.03;1670954;83;21659;-63
2021/05/13 10:07:01;;;;;;;3.62;1.47;;;;;;;19.74;37.00;99931.38;1684597;83;21120;-64
2021/05/13 10:09:27;;;;;;;3.35;1.50;;;;;;;19.70;36.83;99927.42;1685067;83;21113;-65
2021/05/13 10:11:57;;;;;;;4.33;1.35;;;;;;;19.65;37.49;99925.84;1689976;83;21093;-62
2021/05/13 10:14:26;;;;;;;3.40;1.50;;;;;;;19.66;37.36;99920.84;1683062;83;21084;-69
2021/05/13 10:17:03;;;;;;;3.60;1.77;;;;;;;19.66;37.60;99920.31;1664210;83;21123;-62
2021/05/13 10:19:32;;;;;;;4.83;1.60;;;;;;;19.64;37.22;99917.55;1677998;83;22158;-63
2021/05/13 10:21:59;;;;;;;3.83;1.50;;;;;;;19.66;36.68;99914.98;1682207;83;21129;-65
2021/05/13 10:24:26;;;;;;;2.65;1.00;;;;;;;19.74;37.15;99910.53;1681138;83;21095;-65
2021/05/13 10:26:52;;;;;;;4.35;1.40;;;;;;;19.85;37.23;99905.52;1686898;84;21172;-70
2021/05/13 10:29:27;;;;;;;4.50;1.50;;;;;;;19.95;37.36;99896.31;1682331;83;21160;-65
2021/05/13 10:32:20;;;;;;;6.00;1.55;;;;;;;20.03;37.04;99907.66;1647683;84;21187;-64
2021/05/13 10:34:54;;;;;;;4.12;1.40;;;;;;;20.09;36.90;99909.23;1644862;85;21206;-68
2021/05/13 10:37:37;;;;;;;4.37;1.25;;;;;;;20.09;35.95;99902.06;1656761;84;21131;-64
2021/05/13 10:40:15;;;;;;;4.03;1.50;;;;;;;20.08;36.30;99901.73;1627160;86;21135;-63
2021/05/13 10:42:42;;;;;;;6.40;1.42;;;;;;;20.05;36.14;99904.80;1655868;85;21126;-62
2021/05/13 10:45:32;;;;;;;3.90;1.37;;;;;;;20.00;35.75;99898.70;1634684;86;21140;-62
2021/05/13 10:48:25;;;;;;;5.60;1.65;;;;;;;19.99;35.80;99890.91;1636251;85;21129;-67
2021/05/13 10:51:06;;;;;;;5.55;1.75;;;;;;;19.97;36.20;99887.59;1630355;86;21104;-66
2021/05/13 10:53:47;;;;;;;4.80;1.77;;;;;;;20.01;36.48;99882.19;1657467;85;21108;-63
2021/05/13 10:56:29;;;;;;;4.20;1.40;;;;;;;20.04;36.46;99887.14;1656093;84;21104;-66
2021/05/13 10:59:03;;;;;;;3.47;1.20;;;;;;;20.04;35.32;99892.48;1636469;85;21140;-67
2021/05/13 11:01:51;;;;;;;4.15;1.22;;;;;;;20.03;35.37;99886.81;1656456;84;21661;-67
2021/05/13 11:04:28;;;;;;;5.10;1.27;;;;;;;20.08;35.70;99888.91;1650936;85;21093;-66
2021/05/13 11:06:59;;;;;;;3.20;1.47;;;;;;;20.08;35.78;99891.05;1656280;84;21140;-67
2021/05/13 11:09:46;;;;;;;3.15;1.30;;;;;;;20.08;35.60;99894.25;1649852;84;21179;-67
2021/05/13 11:12:18;;;;;;;2.77;1.17;;;;;;;20.08;35.17;99891.05;1633992;85;21930;-67
2021/05/13 11:20:22;;;;;;;3.10;1.27;;;;;;;19.92;35.90;99894.87;1655993;84;21120;-65
2021/05/13 11:23:06;;;;;;;3.58;1.40;;;;;;;19.94;35.71;99901.33;1657392;84;21115;-65
2021/05/13 11:25:49;;;;;;;3.98;1.50;;;;;;;20.00;35.62;99903.23;1659408;84;21163;-64
2021/05/13 11:28:22;;;;;;;3.30;0.93;;;;;;;20.08;36.02;99903.08;1648695;85;21579;-65
2021/05/13 11:30:50;;;;;;;3.12;1.40;;;;;;;20.19;36.33;99904.35;1648305;85;21095;-63
2021/05/13 11:33:17;;;;;;;14.30;2.27;;;;;;;20.27;35.59;99904.72;1652287;84;21653;-63
2021/05/13 11:35:44;;;;;;;3.90;1.72;;;;;;;20.21;34.81;99905.81;1684000;83;21139;-63
2021/05/13 11:38:24;;;;;;;3.30;1.42;;;;;;;20.15;35.45;99905.27;1665300;84;21582;-65
2021/05/13 11:40:52;;;;;;;4.05;1.60;;;;;;;20.05;35.45;99898.12;1688963;83;21108;-64
2021/05/13 11:43:34;;;;;;;4.50;1.47;;;;;;;19.88;35.63;99902.95;1687636;83;21366;-67
2021/05/13 11:46:04;;;;;;;2.90;1.27;;;;;;;19.76;35.89;99910.67;1678180;83;21642;-63
2021/05/13 11:48:41;;;;;;;3.10;1.47;;;;;;;19.60;36.38;99905.59;1686528;83;21144;-60
2021/05/13 11:51:10;;;;;;;4.62;1.57;;;;;;;19.46;36.64;99908.66;1668441;83;21195;-68
2021/05/13 11:53:41;;;;;;;3.58;1.57;;;;;;;19.39;36.52;99908.61;1690132;83;21168;-64
2021/05/13 11:56:08;;;;;;;5.17;1.90;;;;;;;19.28;36.93;99905.11;1677165;83;21056;-61
2021/05/13 11:58:52;;;;;;;4.47;1.67;;;;;;;19.19;36.91;99912.94;1661601;83;21207;-63